El Bayadh, Algeria
Current Conditions -  °F | °C
As of 9:00 AM on Wednesday 22 Oct 2014 (Local Time) from DAUL Reporting Station
Clear Clear  
Wind Chill: 70°   Ceiling: Unl
Heat Index: 70°   Visibility: 6mi
Dew Point: 43°   Wind: 5mph
Humidity: 38%   Direction: 200°SSW
Pressure: 30.21"   Gusts: NA
Location:  33.69°N, 1.02°E
Report Text: DAUL 220800Z 20004KT CAVOK 21/06 Q1023
Loading
Personal Weather Stations






























Interactive Weather Map
Tropical Storm Tracking
New forecast layout! Learn more

10-Day Weather Forecast

Advertisements
Track Severe Weather on mobile